sensor_id;sensor_type;location;lat;lon;timestamp;temperature;humidity
13898;DHT22;7019;50.766;4.474;2022-09-13T00:02:16;15.40;99.90
13898;DHT22;7019;50.766;4.474;2022-09-13T00:04:43;15.30;99.90
13898;DHT22;7019;50.766;4.474;2022-09-13T00:07:10;15.30;99.90
13898;DHT22;7019;50.766;4.474;2022-09-13T00:09:39;15.30;99.90
13898;DHT22;7019;50.766;4.474;2022-09-13T00:12:06;15.30;99.90
13898;DHT22;7019;50.766;4.474;2022-09-13T00:14:33;15.30;99.90
13898;DHT22;7019;50.766;4.474;2022-09-13T00:17:00;15.30;99.90
13898;DHT22;7019;50.766;4.474;2022-09-13T00:19:27;15.30;99.90
13898;DHT22;7019;50.766;4.474;2022-09-13T00:21:54;15.30;99.90
13898;DHT22;7019;50.766;4.474;2022-09-13T00:24:21;15.30;99.90
13898;DHT22;7019;50.766;4.474;2022-09-13T00:26:50;15.40;99.90
13898;DHT22;7019;50.766;4.474;2022-09-13T00:29:17;15.30;99.90
13898;DHT22;7019;50.766;4.474;2022-09-13T00:31:44;15.30;99.90
13898;DHT22;7019;50.766;4.474;2022-09-13T00:34:11;14.80;99.90
13898;DHT22;7019;50.766;4.474;2022-09-13T00:36:38;15.40;99.90
13898;DHT22;7019;50.766;4.474;2022-09-13T00:39:05;15.40;99.90
13898;DHT22;7019;50.766;4.474;2022-09-13T00:41:32;15.40;99.90
13898;DHT22;7019;50.766;4.474;2022-09-13T00:44:01;15.40;99.90
13898;DHT22;7019;50.766;4.474;2022-09-13T00:46:33;15.40;99.90
13898;DHT22;7019;50.766;4.474;2022-09-13T00:49:10;15.50;99.90
13898;DHT22;7019;50.766;4.474;2022-09-13T00:51:39;15.50;99.90
13898;DHT22;7019;50.766;4.474;2022-09-13T00:54:09;15.60;99.90
13898;DHT22;7019;50.766;4.474;2022-09-13T00:56:40;15.60;99.90
13898;DHT22;7019;50.766;4.474;2022-09-13T00:59:12;15.60;99.90
13898;DHT22;7019;50.766;4.474;2022-09-13T01:01:43;15.60;99.90
13898;DHT22;7019;50.766;4.474;2022-09-13T01:04:11;15.60;99.90
13898;DHT22;7019;50.766;4.474;2022-09-13T01:06:40;15.60;99.90
13898;DHT22;7019;50.766;4.474;2022-09-13T01:09:09;15.60;99.90
13898;DHT22;7019;50.766;4.474;2022-09-13T01:11:41;15.60;99.90
13898;DHT22;7019;50.766;4.474;2022-09-13T01:14:13;15.60;99.90
13898;DHT22;7019;50.766;4.474;2022-09-13T01:16:40;15.60;99.90
13898;DHT22;7019;50.766;4.474;2022-09-13T01:19:07;15.60;99.90
13898;DHT22;7019;50.766;4.474;2022-09-13T01:25:34;15.50;99.90
13898;DHT22;7019;50.766;4.474;2022-09-13T01:28:17;15.50;99.90
13898;DHT22;7019;50.766;4.474;2022-09-13T01:30:56;15.60;99.90
13898;DHT22;7019;50.766;4.474;2022-09-13T01:33:33;15.70;99.90
13898;DHT22;7019;50.766;4.474;2022-09-13T01:36:18;15.70;99.90
13898;DHT22;7019;50.766;4.474;2022-09-13T01:38:53;15.70;99.90
13898;DHT22;7019;50.766;4.474;2022-09-13T01:41:52;15.70;99.90
13898;DHT22;7019;50.766;4.474;2022-09-13T01:44:42;15.70;99.90
13898;DHT22;7019;50.766;4.474;2022-09-13T01:47:22;15.70;99.90
13898;DHT22;7019;50.766;4.474;2022-09-13T01:50:04;15.80;99.90
13898;DHT22;7019;50.766;4.474;2022-09-13T01:52:37;15.70;99.90
13898;DHT22;7019;50.766;4.474;2022-09-13T01:55:10;15.70;99.90
13898;DHT22;7019;50.766;4.474;2022-09-13T01:57:45;15.70;99.90
13898;DHT22;7019;50.766;4.474;2022-09-13T02:00:15;15.80;99.90
13898;DHT22;7019;50.766;4.474;2022-09-13T02:02:47;15.80;99.90
13898;DHT22;7019;50.766;4.474;2022-09-13T02:05:19;15.80;99.90
13898;DHT22;7019;50.766;4.474;2022-09-13T02:07:54;15.80;99.90
13898;DHT22;7019;50.766;4.474;2022-09-13T02:10:26;15.80;99.90
13898;DHT22;7019;50.766;4.474;2022-09-13T02:12:57;15.80;99.90
13898;DHT22;7019;50.766;4.474;2022-09-13T02:15:28;15.80;99.90
13898;DHT22;7019;50.766;4.474;2022-09-13T02:18:03;15.90;99.90
13898;DHT22;7019;50.766;4.474;2022-09-13T02:20:33;15.90;99.90
13898;DHT22;7019;50.766;4.474;2022-09-13T02:23:03;15.90;99.90
13898;DHT22;7019;50.766;4.474;2022-09-13T02:25:32;15.90;99.90
13898;DHT22;7019;50.766;4.474;2022-09-13T02:28:04;15.90;99.90
13898;DHT22;7019;50.766;4.474;2022-09-13T02:30:36;15.80;99.90
13898;DHT22;7019;50.766;4.474;2022-09-13T02:33:11;15.80;99.90
13898;DHT22;7019;50.766;4.474;2022-09-13T02:35:43;15.80;99.90
13898;DHT22;7019;50.766;4.474;2022-09-13T02:38:19;15.70;99.90
13898;DHT22;7019;50.766;4.474;2022-09-13T02:40:54;15.70;99.90
13898;DHT22;7019;50.766;4.474;2022-09-13T02:43:28;15.70;99.90
13898;DHT22;7019;50.766;4.474;2022-09-13T02:46:19;15.70;99.90
13898;DHT22;7019;50.766;4.474;2022-09-13T02:48:56;15.70;99.90
13898;DHT22;7019;50.766;4.474;2022-09-13T02:51:30;15.70;99.90
13898;DHT22;7019;50.766;4.474;2022-09-13T02:54:08;15.70;99.90
13898;DHT22;7019;50.766;4.474;2022-09-13T02:56:46;15.70;99.90
13898;DHT22;7019;50.766;4.474;2022-09-13T02:59:16;15.70;99.90
13898;DHT22;7019;50.766;4.474;2022-09-13T03:01:46;15.70;99.90
13898;DHT22;7019;50.766;4.474;2022-09-13T03:04:16;15.80;99.90
13898;DHT22;7019;50.766;4.474;2022-09-13T03:06:43;15.70;99.90
13898;DHT22;7019;50.766;4.474;2022-09-13T03:09:11;15.70;99.90
13898;DHT22;7019;50.766;4.474;2022-09-13T03:11:54;15.80;99.90
13898;DHT22;7019;50.766;4.474;2022-09-13T03:14:32;15.80;99.90
13898;DHT22;7019;50.766;4.474;2022-09-13T03:17:11;15.80;99.90
13898;DHT22;7019;50.766;4.474;2022-09-13T03:19:52;15.80;99.90
13898;DHT22;7019;50.766;4.474;2022-09-13T03:25:18;15.80;99.90
13898;DHT22;7019;50.766;4.474;2022-09-13T03:28:00;15.80;99.90
13898;DHT22;7019;50.766;4.474;2022-09-13T03:30:29;15.80;99.90
13898;DHT22;7019;50.766;4.474;2022-09-13T03:33:04;15.80;99.90
13898;DHT22;7019;50.766;4.474;2022-09-13T03:35:38;15.80;99.90
13898;DHT22;7019;50.766;4.474;2022-09-13T03:38:08;15.90;99.90
13898;DHT22;7019;50.766;4.474;2022-09-13T03:40:42;15.90;99.90
13898;DHT22;7019;50.766;4.474;2022-09-13T03:43:13;15.90;99.90
13898;DHT22;7019;50.766;4.474;2022-09-13T03:45:44;15.80;99.90
13898;DHT22;7019;50.766;4.474;2022-09-13T03:48:13;15.80;99.90
13898;DHT22;7019;50.766;4.474;2022-09-13T03:50:44;15.80;99.90
13898;DHT22;7019;50.766;4.474;2022-09-13T03:53:14;15.90;99.90
13898;DHT22;7019;50.766;4.474;2022-09-13T03:55:43;15.80;99.90
13898;DHT22;7019;50.766;4.474;2022-09-13T03:58:12;15.90;99.90
13898;DHT22;7019;50.766;4.474;2022-09-13T04:00:39;15.90;99.90
13898;DHT22;7019;50.766;4.474;2022-09-13T04:03:07;15.90;99.90
13898;DHT22;7019;50.766;4.474;2022-09-13T04:05:34;15.90;99.90
13898;DHT22;7019;50.766;4.474;2022-09-13T04:08:03;15.90;99.90
13898;DHT22;7019;50.766;4.474;2022-09-13T04:10:31;16.00;99.90
13898;DHT22;7019;50.766;4.474;2022-09-13T04:12:58;15.90;99.90
13898;DHT22;7019;50.766;4.474;2022-09-13T04:15:26;15.90;99.90
13898;DHT22;7019;50.766;4.474;2022-09-13T04:17:53;15.90;99.90
13898;DHT22;7019;50.766;4.474;2022-09-13T04:20:20;15.90;99.90
13898;DHT22;7019;50.766;4.474;2022-09-13T04:22:50;15.90;99.90
13898;DHT22;7019;50.766;4.474;2022-09-13T04:25:19;15.90;99.90
13898;DHT22;7019;50.766;4.474;2022-09-13T04:27:47;15.90;99.90
13898;DHT22;7019;50.766;4.474;2022-09-13T04:30:14;15.90;99.90
13898;DHT22;7019;50.766;4.474;2022-09-13T04:32:42;15.90;99.90
13898;DHT22;7019;50.766;4.474;2022-09-13T04:35:10;15.90;99.90
13898;DHT22;7019;50.766;4.474;2022-09-13T04:37:37;15.90;99.90
13898;DHT22;7019;50.766;4.474;2022-09-13T04:40:05;15.90;99.90
13898;DHT22;7019;50.766;4.474;2022-09-13T04:42:34;15.90;99.90
13898;DHT22;7019;50.766;4.474;2022-09-13T04:45:02;15.90;99.90
13898;DHT22;7019;50.766;4.474;2022-09-13T04:47:29;15.80;99.90
13898;DHT22;7019;50.766;4.474;2022-09-13T04:49:56;15.90;99.90
13898;DHT22;7019;50.766;4.474;2022-09-13T04:52:24;15.90;99.90
13898;DHT22;7019;50.766;4.474;2022-09-13T04:54:51;15.90;99.90
13898;DHT22;7019;50.766;4.474;2022-09-13T04:57:18;15.90;99.90
13898;DHT22;7019;50.766;4.474;2022-09-13T04:59:46;15.90;99.90
13898;DHT22;7019;50.766;4.474;2022-09-13T05:02:13;15.90;99.90
13898;DHT22;7019;50.766;4.474;2022-09-13T05:04:40;15.90;99.90
13898;DHT22;7019;50.766;4.474;2022-09-13T05:07:07;15.90;99.90
13898;DHT22;7019;50.766;4.474;2022-09-13T05:09:34;15.90;99.90
13898;DHT22;7019;50.766;4.474;2022-09-13T05:12:02;16.00;99.90
13898;DHT22;7019;50.766;4.474;2022-09-13T05:14:29;16.00;99.90
13898;DHT22;7019;50.766;4.474;2022-09-13T05:16:58;16.00;99.90
13898;DHT22;7019;50.766;4.474;2022-09-13T05:19:25;16.00;99.90
13898;DHT22;7019;50.766;4.474;2022-09-13T05:21:52;16.00;99.90
13898;DHT22;7019;50.766;4.474;2022-09-13T05:24:19;16.10;99.90
13898;DHT22;7019;50.766;4.474;2022-09-13T05:26:46;16.10;99.90
13898;DHT22;7019;50.766;4.474;2022-09-13T05:29:13;16.10;99.90
13898;DHT22;7019;50.766;4.474;2022-09-13T05:31:41;16.10;99.90
13898;DHT22;7019;50.766;4.474;2022-09-13T05:34:11;16.10;99.90
13898;DHT22;7019;50.766;4.474;2022-09-13T05:36:39;16.10;99.90
13898;DHT22;7019;50.766;4.474;2022-09-13T05:39:10;16.10;99.90
13898;DHT22;7019;50.766;4.474;2022-09-13T05:41:37;16.10;99.90
13898;DHT22;7019;50.766;4.474;2022-09-13T05:44:04;16.10;99.90
13898;DHT22;7019;50.766;4.474;2022-09-13T05:46:32;16.10;99.90
13898;DHT22;7019;50.766;4.474;2022-09-13T05:48:59;16.10;99.90
13898;DHT22;7019;50.766;4.474;2022-09-13T05:51:27;16.10;99.90
13898;DHT22;7019;50.766;4.474;2022-09-13T05:53:54;16.10;99.90
13898;DHT22;7019;50.766;4.474;2022-09-13T05:56:23;16.10;99.90
13898;DHT22;7019;50.766;4.474;2022-09-13T05:58:52;16.10;99.90
13898;DHT22;7019;50.766;4.474;2022-09-13T06:01:21;16.10;99.90
13898;DHT22;7019;50.766;4.474;2022-09-13T06:03:48;16.10;99.90
13898;DHT22;7019;50.766;4.474;2022-09-13T06:06:16;16.10;99.90
13898;DHT22;7019;50.766;4.474;2022-09-13T06:08:45;16.10;99.90
13898;DHT22;7019;50.766;4.474;2022-09-13T06:11:13;16.10;99.90
13898;DHT22;7019;50.766;4.474;2022-09-13T06:13:41;16.20;99.90
13898;DHT22;7019;50.766;4.474;2022-09-13T06:16:10;16.20;99.90
13898;DHT22;7019;50.766;4.474;2022-09-13T06:18:37;16.20;99.90
13898;DHT22;7019;50.766;4.474;2022-09-13T06:21:07;16.20;99.90
13898;DHT22;7019;50.766;4.474;2022-09-13T06:23:34;16.20;99.90
13898;DHT22;7019;50.766;4.474;2022-09-13T06:26:04;16.30;99.90
13898;DHT22;7019;50.766;4.474;2022-09-13T06:28:33;16.30;99.90
13898;DHT22;7019;50.766;4.474;2022-09-13T06:31:01;16.30;99.90
13898;DHT22;7019;50.766;4.474;2022-09-13T06:33:29;16.30;99.90
13898;DHT22;7019;50.766;4.474;2022-09-13T06:35:59;16.40;99.90
13898;DHT22;7019;50.766;4.474;2022-09-13T06:38:26;16.50;99.90
13898;DHT22;7019;50.766;4.474;2022-09-13T06:41:06;16.50;99.90
13898;DHT22;7019;50.766;4.474;2022-09-13T06:43:33;16.60;99.90
13898;DHT22;7019;50.766;4.474;2022-09-13T06:46:01;16.60;99.90
13898;DHT22;7019;50.766;4.474;2022-09-13T06:48:31;16.60;99.90
13898;DHT22;7019;50.766;4.474;2022-09-13T06:50:59;16.70;99.90
13898;DHT22;7019;50.766;4.474;2022-09-13T06:53:27;16.70;99.90
13898;DHT22;7019;50.766;4.474;2022-09-13T06:56:02;16.80;99.90
13898;DHT22;7019;50.766;4.474;2022-09-13T06:58:32;16.90;99.90
13898;DHT22;7019;50.766;4.474;2022-09-13T07:01:10;16.90;99.90
13898;DHT22;7019;50.766;4.474;2022-09-13T07:03:40;17.00;99.90
13898;DHT22;7019;50.766;4.474;2022-09-13T07:06:09;17.00;99.90
13898;DHT22;7019;50.766;4.474;2022-09-13T07:08:37;17.00;99.90
13898;DHT22;7019;50.766;4.474;2022-09-13T07:11:10;17.10;99.90
13898;DHT22;7019;50.766;4.474;2022-09-13T07:13:39;17.20;99.90
13898;DHT22;7019;50.766;4.474;2022-09-13T07:16:08;17.30;99.90
13898;DHT22;7019;50.766;4.474;2022-09-13T07:18:35;17.40;99.90
13898;DHT22;7019;50.766;4.474;2022-09-13T07:21:03;17.40;99.90
13898;DHT22;7019;50.766;4.474;2022-09-13T07:23:31;17.50;99.90
13898;DHT22;7019;50.766;4.474;2022-09-13T07:25:59;17.50;99.90
13898;DHT22;7019;50.766;4.474;2022-09-13T07:28:32;17.60;99.90
13898;DHT22;7019;50.766;4.474;2022-09-13T07:31:10;17.70;99.90
13898;DHT22;7019;50.766;4.474;2022-09-13T07:33:42;17.70;99.90
13898;DHT22;7019;50.766;4.474;2022-09-13T07:36:10;17.70;99.90
13898;DHT22;7019;50.766;4.474;2022-09-13T07:38:40;17.80;99.90
13898;DHT22;7019;50.766;4.474;2022-09-13T07:41:11;17.80;99.90
13898;DHT22;7019;50.766;4.474;2022-09-13T07:43:38;17.90;99.90
13898;DHT22;7019;50.766;4.474;2022-09-13T07:46:08;18.00;99.90
13898;DHT22;7019;50.766;4.474;2022-09-13T07:48:37;18.10;99.90
13898;DHT22;7019;50.766;4.474;2022-09-13T07:51:06;18.30;99.90
13898;DHT22;7019;50.766;4.474;2022-09-13T07:53:34;18.40;99.90
13898;DHT22;7019;50.766;4.474;2022-09-13T07:56:03;18.70;99.90
13898;DHT22;7019;50.766;4.474;2022-09-13T07:58:35;18.90;99.90
13898;DHT22;7019;50.766;4.474;2022-09-13T08:01:05;19.10;99.90
13898;DHT22;7019;50.766;4.474;2022-09-13T08:03:34;19.50;99.90
13898;DHT22;7019;50.766;4.474;2022-09-13T08:06:03;19.80;99.90
13898;DHT22;7019;50.766;4.474;2022-09-13T08:08:31;20.10;99.90
13898;DHT22;7019;50.766;4.474;2022-09-13T08:10:58;20.40;99.90
13898;DHT22;7019;50.766;4.474;2022-09-13T08:13:26;20.50;99.90
13898;DHT22;7019;50.766;4.474;2022-09-13T08:15:53;20.60;99.90
13898;DHT22;7019;50.766;4.474;2022-09-13T08:18:21;20.60;99.90
13898;DHT22;7019;50.766;4.474;2022-09-13T08:20:49;20.60;99.90
13898;DHT22;7019;50.766;4.474;2022-09-13T08:23:16;20.80;99.90
13898;DHT22;7019;50.766;4.474;2022-09-13T08:25:43;20.90;99.90
13898;DHT22;7019;50.766;4.474;2022-09-13T08:28:14;20.90;99.90
13898;DHT22;7019;50.766;4.474;2022-09-13T08:30:42;21.10;99.90
13898;DHT22;7019;50.766;4.474;2022-09-13T08:33:10;21.30;99.90
13898;DHT22;7019;50.766;4.474;2022-09-13T08:35:37;21.40;99.90
13898;DHT22;7019;50.766;4.474;2022-09-13T08:38:06;21.60;99.90
13898;DHT22;7019;50.766;4.474;2022-09-13T08:40:39;21.70;99.90
13898;DHT22;7019;50.766;4.474;2022-09-13T08:43:15;21.70;99.90
13898;DHT22;7019;50.766;4.474;2022-09-13T08:45:48;21.60;99.90
13898;DHT22;7019;50.766;4.474;2022-09-13T08:48:19;21.50;99.90
13898;DHT22;7019;50.766;4.474;2022-09-13T08:50:52;21.60;99.90
13898;DHT22;7019;50.766;4.474;2022-09-13T08:53:26;21.60;99.90
13898;DHT22;7019;50.766;4.474;2022-09-13T08:56:01;21.60;99.90
13898;DHT22;7019;50.766;4.474;2022-09-13T08:58:56;21.60;99.90
13898;DHT22;7019;50.766;4.474;2022-09-13T09:01:32;21.60;99.90
13898;DHT22;7019;50.766;4.474;2022-09-13T09:04:09;21.50;99.90
13898;DHT22;7019;50.766;4.474;2022-09-13T09:06:38;21.50;99.90
13898;DHT22;7019;50.766;4.474;2022-09-13T09:09:11;21.70;99.90
13898;DHT22;7019;50.766;4.474;2022-09-13T09:11:43;21.80;99.90
13898;DHT22;7019;50.766;4.474;2022-09-13T09:14:16;21.90;99.90
13898;DHT22;7019;50.766;4.474;2022-09-13T09:16:48;22.20;99.90
13898;DHT22;7019;50.766;4.474;2022-09-13T09:19:20;22.30;99.90
13898;DHT22;7019;50.766;4.474;2022-09-13T09:21:49;22.40;99.90
13898;DHT22;7019;50.766;4.474;2022-09-13T09:24:22;22.60;99.90
13898;DHT22;7019;50.766;4.474;2022-09-13T09:26:50;22.60;99.90
13898;DHT22;7019;50.766;4.474;2022-09-13T09:29:20;22.60;99.90
13898;DHT22;7019;50.766;4.474;2022-09-13T09:31:56;22.50;99.90
13898;DHT22;7019;50.766;4.474;2022-09-13T09:34:39;22.50;99.90
13898;DHT22;7019;50.766;4.474;2022-09-13T09:37:16;22.50;99.90
13898;DHT22;7019;50.766;4.474;2022-09-13T09:39:49;22.60;99.90
13898;DHT22;7019;50.766;4.474;2022-09-13T09:42:19;22.50;99.90
13898;DHT22;7019;50.766;4.474;2022-09-13T09:44:51;22.50;99.90
13898;DHT22;7019;50.766;4.474;2022-09-13T09:47:21;22.50;99.90
13898;DHT22;7019;50.766;4.474;2022-09-13T09:49:51;22.40;99.90
13898;DHT22;7019;50.766;4.474;2022-09-13T09:52:39;22.50;99.90
13898;DHT22;7019;50.766;4.474;2022-09-13T09:55:26;22.50;99.90
13898;DHT22;7019;50.766;4.474;2022-09-13T09:57:55;22.60;99.90
13898;DHT22;7019;50.766;4.474;2022-09-13T10:00:24;22.70;99.90
13898;DHT22;7019;50.766;4.474;2022-09-13T10:02:54;22.70;99.90
13898;DHT22;7019;50.766;4.474;2022-09-13T10:05:22;22.80;99.90
13898;DHT22;7019;50.766;4.474;2022-09-13T10:07:56;22.80;99.90
13898;DHT22;7019;50.766;4.474;2022-09-13T10:10:31;22.80;99.90
13898;DHT22;7019;50.766;4.474;2022-09-13T10:13:02;22.90;99.90
13898;DHT22;7019;50.766;4.474;2022-09-13T10:15:32;23.00;99.90
13898;DHT22;7019;50.766;4.474;2022-09-13T10:18:09;23.10;99.90
13898;DHT22;7019;50.766;4.474;2022-09-13T10:20:39;23.20;99.90
13898;DHT22;7019;50.766;4.474;2022-09-13T10:23:16;23.50;99.90
13898;DHT22;7019;50.766;4.474;2022-09-13T10:25:58;23.50;99.90
13898;DHT22;7019;50.766;4.474;2022-09-13T10:28:27;23.50;99.90
13898;DHT22;7019;50.766;4.474;2022-09-13T10:30:57;23.40;99.90
13898;DHT22;7019;50.766;4.474;2022-09-13T10:33:27;23.30;99.90
13898;DHT22;7019;50.766;4.474;2022-09-13T10:35:56;23.10;99.90
13898;DHT22;7019;50.766;4.474;2022-09-13T10:38:28;22.80;99.90
13898;DHT22;7019;50.766;4.474;2022-09-13T10:40:59;22.80;99.90
13898;DHT22;7019;50.766;4.474;2022-09-13T10:43:29;22.60;99.90
13898;DHT22;7019;50.766;4.474;2022-09-13T10:45:57;22.50;99.90
13898;DHT22;7019;50.766;4.474;2022-09-13T10:48:28;22.40;99.90
13898;DHT22;7019;50.766;4.474;2022-09-13T10:51:07;22.30;99.90
13898;DHT22;7019;50.766;4.474;2022-09-13T10:53:37;22.30;99.90
13898;DHT22;7019;50.766;4.474;2022-09-13T10:56:18;21.50;99.90
13898;DHT22;7019;50.766;4.474;2022-09-13T10:58:46;22.40;99.90
13898;DHT22;7019;50.766;4.474;2022-09-13T11:01:41;22.50;99.90
13898;DHT22;7019;50.766;4.474;2022-09-13T11:07:22;22.60;99.90
13898;DHT22;7019;50.766;4.474;2022-09-13T11:09:55;22.70;99.90
13898;DHT22;7019;50.766;4.474;2022-09-13T11:12:32;22.80;99.90
13898;DHT22;7019;50.766;4.474;2022-09-13T11:15:12;22.70;99.90
13898;DHT22;7019;50.766;4.474;2022-09-13T11:17:58;22.70;99.90
13898;DHT22;7019;50.766;4.474;2022-09-13T11:20:39;22.60;99.90
13898;DHT22;7019;50.766;4.474;2022-09-13T11:23:32;22.60;99.90
13898;DHT22;7019;50.766;4.474;2022-09-13T11:26:19;22.60;99.90
13898;DHT22;7019;50.766;4.474;2022-09-13T11:28:58;22.50;99.90
13898;DHT22;7019;50.766;4.474;2022-09-13T11:31:37;22.80;99.90
13898;DHT22;7019;50.766;4.474;2022-09-13T11:34:28;22.70;99.90
13898;DHT22;7019;50.766;4.474;2022-09-13T11:37:13;22.70;99.90
13898;DHT22;7019;50.766;4.474;2022-09-13T11:39:48;22.70;99.90
13898;DHT22;7019;50.766;4.474;2022-09-13T11:42:30;22.70;99.90
13898;DHT22;7019;50.766;4.474;2022-09-13T11:45:17;22.70;99.90
13898;DHT22;7019;50.766;4.474;2022-09-13T11:48:06;22.70;99.90
13898;DHT22;7019;50.766;4.474;2022-09-13T11:50:41;22.70;99.90
13898;DHT22;7019;50.766;4.474;2022-09-13T11:53:29;22.80;99.90
13898;DHT22;7019;50.766;4.474;2022-09-13T11:56:00;22.80;99.90
13898;DHT22;7019;50.766;4.474;2022-09-13T11:58:34;22.90;99.90
13898;DHT22;7019;50.766;4.474;2022-09-13T12:01:06;22.90;99.90
13898;DHT22;7019;50.766;4.474;2022-09-13T12:03:39;22.90;99.90
13898;DHT22;7019;50.766;4.474;2022-09-13T12:06:13;22.90;99.90
13898;DHT22;7019;50.766;4.474;2022-09-13T12:08:44;22.90;99.90
13898;DHT22;7019;50.766;4.474;2022-09-13T12:11:15;22.80;99.90
13898;DHT22;7019;50.766;4.474;2022-09-13T12:13:47;22.70;99.90
13898;DHT22;7019;50.766;4.474;2022-09-13T12:16:21;22.70;99.90
13898;DHT22;7019;50.766;4.474;2022-09-13T12:18:53;22.60;99.90
13898;DHT22;7019;50.766;4.474;2022-09-13T12:21:24;22.50;99.90
13898;DHT22;7019;50.766;4.474;2022-09-13T12:24:01;22.30;99.90
13898;DHT22;7019;50.766;4.474;2022-09-13T12:26:32;22.30;99.90
13898;DHT22;7019;50.766;4.474;2022-09-13T12:29:06;22.30;99.90
13898;DHT22;7019;50.766;4.474;2022-09-13T12:31:35;22.30;99.90
13898;DHT22;7019;50.766;4.474;2022-09-13T12:34:05;22.30;99.90
13898;DHT22;7019;50.766;4.474;2022-09-13T12:36:51;22.30;99.90
13898;DHT22;7019;50.766;4.474;2022-09-13T12:39:33;22.30;99.90
13898;DHT22;7019;50.766;4.474;2022-09-13T12:42:21;22.30;99.90
13898;DHT22;7019;50.766;4.474;2022-09-13T12:45:09;22.30;99.90
13898;DHT22;7019;50.766;4.474;2022-09-13T12:48:11;22.40;99.90
13898;DHT22;7019;50.766;4.474;2022-09-13T12:50:48;22.40;99.90
13898;DHT22;7019;50.766;4.474;2022-09-13T12:53:46;22.50;99.90
13898;DHT22;7019;50.766;4.474;2022-09-13T12:56:41;22.40;99.90
13898;DHT22;7019;50.766;4.474;2022-09-13T12:59:24;22.50;99.90
13898;DHT22;7019;50.766;4.474;2022-09-13T13:01:55;22.40;99.90
13898;DHT22;7019;50.766;4.474;2022-09-13T13:04:26;22.40;99.90
13898;DHT22;7019;50.766;4.474;2022-09-13T13:06:57;22.40;99.90
13898;DHT22;7019;50.766;4.474;2022-09-13T13:09:32;22.40;99.90
13898;DHT22;7019;50.766;4.474;2022-09-13T13:12:03;22.40;99.90
13898;DHT22;7019;50.766;4.474;2022-09-13T13:14:47;22.50;99.90
13898;DHT22;7019;50.766;4.474;2022-09-13T13:17:38;22.60;99.90
13898;DHT22;7019;50.766;4.474;2022-09-13T13:23:21;22.50;99.90
13898;DHT22;7019;50.766;4.474;2022-09-13T13:26:01;22.50;99.90
13898;DHT22;7019;50.766;4.474;2022-09-13T13:31:39;22.50;99.90
13898;DHT22;7019;50.766;4.474;2022-09-13T13:34:40;22.40;99.90
13898;DHT22;7019;50.766;4.474;2022-09-13T13:37:27;22.30;99.90
13898;DHT22;7019;50.766;4.474;2022-09-13T13:43:31;22.20;99.90
13898;DHT22;7019;50.766;4.474;2022-09-13T13:46:24;22.20;99.90
13898;DHT22;7019;50.766;4.474;2022-09-13T13:48:52;22.20;99.90
13898;DHT22;7019;50.766;4.474;2022-09-13T13:51:24;22.10;99.90
13898;DHT22;7019;50.766;4.474;2022-09-13T13:53:56;22.00;99.90
13898;DHT22;7019;50.766;4.474;2022-09-13T13:56:34;22.00;99.90
13898;DHT22;7019;50.766;4.474;2022-09-13T13:59:16;21.90;99.90
13898;DHT22;7019;50.766;4.474;2022-09-13T14:01:50;21.90;99.90
13898;DHT22;7019;50.766;4.474;2022-09-13T14:04:44;22.00;99.90
13898;DHT22;7019;50.766;4.474;2022-09-13T14:10:48;22.00;99.90
13898;DHT22;7019;50.766;4.474;2022-09-13T14:13:27;21.90;99.90
13898;DHT22;7019;50.766;4.474;2022-09-13T14:16:05;21.80;99.90
13898;DHT22;7019;50.766;4.474;2022-09-13T14:18:57;21.80;99.90
13898;DHT22;7019;50.766;4.474;2022-09-13T14:21:27;21.70;99.90
13898;DHT22;7019;50.766;4.474;2022-09-13T14:24:15;21.70;99.90
13898;DHT22;7019;50.766;4.474;2022-09-13T14:26:42;21.60;99.90
13898;DHT22;7019;50.766;4.474;2022-09-13T14:29:15;21.60;99.90
13898;DHT22;7019;50.766;4.474;2022-09-13T14:31:46;21.50;99.90
13898;DHT22;7019;50.766;4.474;2022-09-13T14:34:22;21.50;99.90
13898;DHT22;7019;50.766;4.474;2022-09-13T14:36:54;21.50;99.90
13898;DHT22;7019;50.766;4.474;2022-09-13T14:39:22;21.50;99.90
13898;DHT22;7019;50.766;4.474;2022-09-13T14:41:57;21.50;99.90
13898;DHT22;7019;50.766;4.474;2022-09-13T14:44:26;21.50;99.90
13898;DHT22;7019;50.766;4.474;2022-09-13T14:47:03;21.60;99.90
13898;DHT22;7019;50.766;4.474;2022-09-13T14:49:35;21.60;99.90
13898;DHT22;7019;50.766;4.474;2022-09-13T14:52:06;21.60;99.90
13898;DHT22;7019;50.766;4.474;2022-09-13T14:54:37;21.50;99.90
13898;DHT22;7019;50.766;4.474;2022-09-13T14:57:08;21.50;99.90
13898;DHT22;7019;50.766;4.474;2022-09-13T14:59:43;21.40;99.90
13898;DHT22;7019;50.766;4.474;2022-09-13T15:02:18;21.40;99.90
13898;DHT22;7019;50.766;4.474;2022-09-13T15:04:51;21.30;99.90
13898;DHT22;7019;50.766;4.474;2022-09-13T15:07:22;21.30;99.90
13898;DHT22;7019;50.766;4.474;2022-09-13T15:09:54;21.20;99.90
13898;DHT22;7019;50.766;4.474;2022-09-13T15:12:23;21.10;99.90
13898;DHT22;7019;50.766;4.474;2022-09-13T15:15:22;21.10;99.90
13898;DHT22;7019;50.766;4.474;2022-09-13T15:17:53;21.00;99.90
13898;DHT22;7019;50.766;4.474;2022-09-13T15:20:21;21.00;99.90
13898;DHT22;7019;50.766;4.474;2022-09-13T15:22:48;21.00;99.90
13898;DHT22;7019;50.766;4.474;2022-09-13T15:25:21;21.00;99.90
13898;DHT22;7019;50.766;4.474;2022-09-13T15:27:51;20.90;99.90
13898;DHT22;7019;50.766;4.474;2022-09-13T15:30:23;20.90;99.90
13898;DHT22;7019;50.766;4.474;2022-09-13T15:33:05;20.80;99.90
13898;DHT22;7019;50.766;4.474;2022-09-13T15:35:35;20.80;99.90
13898;DHT22;7019;50.766;4.474;2022-09-13T15:38:27;20.80;99.90
13898;DHT22;7019;50.766;4.474;2022-09-13T15:40:59;20.80;99.90
13898;DHT22;7019;50.766;4.474;2022-09-13T15:43:27;20.80;99.90
13898;DHT22;7019;50.766;4.474;2022-09-13T15:45:56;20.90;99.90
13898;DHT22;7019;50.766;4.474;2022-09-13T15:48:27;20.80;99.90
13898;DHT22;7019;50.766;4.474;2022-09-13T15:51:09;20.90;99.90
13898;DHT22;7019;50.766;4.474;2022-09-13T15:53:37;20.90;99.90
13898;DHT22;7019;50.766;4.474;2022-09-13T15:56:06;20.80;99.90
13898;DHT22;7019;50.766;4.474;2022-09-13T15:58:34;20.80;99.90
13898;DHT22;7019;50.766;4.474;2022-09-13T16:01:03;20.80;99.90
13898;DHT22;7019;50.766;4.474;2022-09-13T16:03:31;20.70;99.90
13898;DHT22;7019;50.766;4.474;2022-09-13T16:05:59;20.70;99.90
13898;DHT22;7019;50.766;4.474;2022-09-13T16:08:26;20.60;99.90
13898;DHT22;7019;50.766;4.474;2022-09-13T16:10:53;20.60;99.90
13898;DHT22;7019;50.766;4.474;2022-09-13T16:13:20;20.50;99.90
13898;DHT22;7019;50.766;4.474;2022-09-13T16:15:47;20.50;99.90
13898;DHT22;7019;50.766;4.474;2022-09-13T16:18:15;20.40;99.90
13898;DHT22;7019;50.766;4.474;2022-09-13T16:20:44;20.40;99.90
13898;DHT22;7019;50.766;4.474;2022-09-13T16:23:11;20.30;99.90
13898;DHT22;7019;50.766;4.474;2022-09-13T16:25:38;20.30;99.90
13898;DHT22;7019;50.766;4.474;2022-09-13T16:28:06;20.20;99.90
13898;DHT22;7019;50.766;4.474;2022-09-13T16:30:33;20.20;99.90
13898;DHT22;7019;50.766;4.474;2022-09-13T16:33:01;20.10;99.90
13898;DHT22;7019;50.766;4.474;2022-09-13T16:35:30;20.10;99.90
13898;DHT22;7019;50.766;4.474;2022-09-13T16:37:59;20.00;99.90
13898;DHT22;7019;50.766;4.474;2022-09-13T16:40:29;20.10;99.90
13898;DHT22;7019;50.766;4.474;2022-09-13T16:42:56;19.90;99.90